sensor_id;sensor_type;location;lat;lon;timestamp;pressure;altitude;pressure_sealevel;temperature;humidity
57074;BME280;69035;54.392;18.574;2023-04-07T00:00:25;101860.94;;;4.92;83.79
57074;BME280;69035;54.392;18.574;2023-04-07T00:03:14;101842.56;;;4.87;83.14
57074;BME280;69035;54.392;18.574;2023-04-07T00:05:43;101846.09;;;4.89;84.13
57074;BME280;69035;54.392;18.574;2023-04-07T00:08:12;101844.41;;;4.89;84.35
57074;BME280;69035;54.392;18.574;2023-04-07T00:10:41;101852.00;;;4.83;85.27
57074;BME280;69035;54.392;18.574;2023-04-07T00:13:11;101853.56;;;4.77;84.53
57074;BME280;69035;54.392;18.574;2023-04-07T00:15:39;101853.56;;;4.77;85.98
57074;BME280;69035;54.392;18.574;2023-04-07T00:18:08;101851.19;;;4.84;84.52
57074;BME280;69035;54.392;18.574;2023-04-07T00:20:37;101846.19;;;4.92;83.91
57074;BME280;69035;54.392;18.574;2023-04-07T00:23:06;101847.19;;;4.96;83.49
57074;BME280;69035;54.392;18.574;2023-04-07T00:25:34;101847.31;;;5.00;83.50
57074;BME280;69035;54.392;18.574;2023-04-07T00:28:03;101846.31;;;4.95;84.65
57074;BME280;69035;54.392;18.574;2023-04-07T00:30:34;101845.34;;;4.93;83.98
57074;BME280;69035;54.392;18.574;2023-04-07T00:33:03;101842.84;;;4.96;83.80
57074;BME280;69035;54.392;18.574;2023-04-07T00:35:35;101837.59;;;4.95;84.78
57074;BME280;69035;54.392;18.574;2023-04-07T00:38:04;101834.72;;;4.85;86.33
57074;BME280;69035;54.392;18.574;2023-04-07T00:40:33;101839.88;;;4.84;85.65
57074;BME280;69035;54.392;18.574;2023-04-07T00:43:02;101838.31;;;4.91;86.08
57074;BME280;69035;54.392;18.574;2023-04-07T00:45:31;101836.97;;;5.03;85.23
57074;BME280;69035;54.392;18.574;2023-04-07T00:48:01;101826.44;;;4.99;85.93
57074;BME280;69035;54.392;18.574;2023-04-07T00:50:30;101829.13;;;5.02;85.63
57074;BME280;69035;54.392;18.574;2023-04-07T00:52:59;101819.31;;;4.93;85.46
57074;BME280;69035;54.392;18.574;2023-04-07T00:55:28;101815.00;;;4.94;85.45
57074;BME280;69035;54.392;18.574;2023-04-07T00:57:57;101814.94;;;4.92;85.96
57074;BME280;69035;54.392;18.574;2023-04-07T01:00:26;101820.13;;;4.92;86.37
57074;BME280;69035;54.392;18.574;2023-04-07T01:02:58;101816.50;;;4.85;86.05
57074;BME280;69035;54.392;18.574;2023-04-07T01:05:41;101806.06;;;4.85;86.77
57074;BME280;69035;54.392;18.574;2023-04-07T01:08:16;101809.78;;;4.94;85.09
57074;BME280;69035;54.392;18.574;2023-04-07T01:10:50;101812.41;;;4.94;86.30
57074;BME280;69035;54.392;18.574;2023-04-07T01:13:24;101812.56;;;5.00;85.70
57074;BME280;69035;54.392;18.574;2023-04-07T01:16:08;101811.56;;;4.96;86.16
57074;BME280;69035;54.392;18.574;2023-04-07T01:18:47;101808.19;;;4.99;85.52
57074;BME280;69035;54.392;18.574;2023-04-07T01:21:21;101806.56;;;5.02;85.51
57074;BME280;69035;54.392;18.574;2023-04-07T01:24:02;101804.72;;;4.98;86.43
57074;BME280;69035;54.392;18.574;2023-04-07T01:26:33;101802.09;;;4.98;86.40
57074;BME280;69035;54.392;18.574;2023-04-07T01:31:55;101795.19;;;5.00;86.65
57074;BME280;69035;54.392;18.574;2023-04-07T01:34:26;101791.81;;;5.03;85.59
57074;BME280;69035;54.392;18.574;2023-04-07T01:36:57;101780.41;;;4.99;86.37
57074;BME280;69035;54.392;18.574;2023-04-07T01:39:27;101779.44;;;4.96;87.00
57074;BME280;69035;54.392;18.574;2023-04-07T01:41:56;101788.13;;;4.96;86.16
57074;BME280;69035;54.392;18.574;2023-04-07T01:44:30;101789.19;;;5.03;86.48
57074;BME280;69035;54.392;18.574;2023-04-07T01:47:01;101790.97;;;5.04;86.99
57074;BME280;69035;54.392;18.574;2023-04-07T01:49:31;101790.97;;;5.04;86.68
57074;BME280;69035;54.392;18.574;2023-04-07T01:52:01;101782.34;;;5.06;85.90
57074;BME280;69035;54.392;18.574;2023-04-07T01:54:31;101787.59;;;5.08;85.82
57074;BME280;69035;54.392;18.574;2023-04-07T01:57:00;101787.44;;;5.02;86.60
57074;BME280;69035;54.392;18.574;2023-04-07T01:59:30;101784.81;;;5.02;86.24
57074;BME280;69035;54.392;18.574;2023-04-07T02:02:01;101790.16;;;5.06;86.64
57074;BME280;69035;54.392;18.574;2023-04-07T02:04:34;101786.63;;;5.04;87.18
57074;BME280;69035;54.392;18.574;2023-04-07T02:07:08;101797.19;;;5.09;86.80
57074;BME280;69035;54.392;18.574;2023-04-07T02:09:46;101794.47;;;5.04;86.29
57074;BME280;69035;54.392;18.574;2023-04-07T02:12:17;101790.97;;;5.04;87.03
57074;BME280;69035;54.392;18.574;2023-04-07T02:14:59;101791.06;;;5.07;85.94
57074;BME280;69035;54.392;18.574;2023-04-07T02:17:31;101794.63;;;5.11;86.65
57074;BME280;69035;54.392;18.574;2023-04-07T02:20:04;101787.72;;;5.11;86.77
57074;BME280;69035;54.392;18.574;2023-04-07T02:22:33;101791.44;;;5.21;86.28
57074;BME280;69035;54.392;18.574;2023-04-07T02:25:02;101794.16;;;5.26;85.17
57074;BME280;69035;54.392;18.574;2023-04-07T02:27:45;101793.44;;;5.31;84.40
57074;BME280;69035;54.392;18.574;2023-04-07T02:30:14;101794.16;;;5.26;84.83
57074;BME280;69035;54.392;18.574;2023-04-07T02:32:45;101796.72;;;5.24;85.07
57074;BME280;69035;54.392;18.574;2023-04-07T02:35:14;101790.56;;;5.20;85.60
57074;BME280;69035;54.392;18.574;2023-04-07T02:37:43;101787.94;;;5.20;84.76
57074;BME280;69035;54.392;18.574;2023-04-07T02:40:13;101790.75;;;5.28;84.67
57074;BME280;69035;54.392;18.574;2023-04-07T02:42:42;101787.47;;;5.35;84.66
57074;BME280;69035;54.392;18.574;2023-04-07T02:45:12;101787.56;;;5.38;84.77
57074;BME280;69035;54.392;18.574;2023-04-07T02:47:40;101781.34;;;5.33;83.51
57074;BME280;69035;54.392;18.574;2023-04-07T02:50:10;101785.00;;;5.40;83.99
57074;BME280;69035;54.392;18.574;2023-04-07T02:52:39;101784.09;;;5.38;83.36
57074;BME280;69035;54.392;18.574;2023-04-07T02:55:13;101788.47;;;5.39;83.57
57074;BME280;69035;54.392;18.574;2023-04-07T02:57:42;101778.88;;;5.38;83.13
57074;BME280;69035;54.392;18.574;2023-04-07T03:00:30;101784.84;;;5.34;84.33
57074;BME280;69035;54.392;18.574;2023-04-07T03:03:05;101783.03;;;5.31;84.14
57074;BME280;69035;54.392;18.574;2023-04-07T03:05:38;101776.72;;;5.23;84.04
57074;BME280;69035;54.392;18.574;2023-04-07T03:08:09;101772.47;;;5.27;83.88
57074;BME280;69035;54.392;18.574;2023-04-07T03:10:42;101780.44;;;5.33;83.58
57074;BME280;69035;54.392;18.574;2023-04-07T03:13:11;101777.84;;;5.33;83.69
57074;BME280;69035;54.392;18.574;2023-04-07T03:15:43;101769.28;;;5.37;83.83
57074;BME280;69035;54.392;18.574;2023-04-07T03:18:12;101780.72;;;5.42;83.47
57074;BME280;69035;54.392;18.574;2023-04-07T03:20:44;101774.31;;;5.31;84.11
57074;BME280;69035;54.392;18.574;2023-04-07T03:23:15;101777.81;;;5.31;84.24
57074;BME280;69035;54.392;18.574;2023-04-07T03:25:44;101773.41;;;5.29;85.68
57074;BME280;69035;54.392;18.574;2023-04-07T03:28:15;101765.59;;;5.29;85.02
57074;BME280;69035;54.392;18.574;2023-04-07T03:30:43;101771.63;;;5.28;85.61
57074;BME280;69035;54.392;18.574;2023-04-07T03:33:12;101775.34;;;5.36;85.27
57074;BME280;69035;54.392;18.574;2023-04-07T03:35:41;101779.78;;;5.40;84.88
57074;BME280;69035;54.392;18.574;2023-04-07T03:38:12;101774.72;;;5.45;85.22
57074;BME280;69035;54.392;18.574;2023-04-07T03:40:42;101770.28;;;5.42;85.31
57074;BME280;69035;54.392;18.574;2023-04-07T03:43:11;101775.53;;;5.44;84.25
57074;BME280;69035;54.392;18.574;2023-04-07T03:45:43;101786.06;;;5.47;84.06
57074;BME280;69035;54.392;18.574;2023-04-07T03:48:12;101780.69;;;5.40;84.60
57074;BME280;69035;54.392;18.574;2023-04-07T03:50:53;101771.09;;;5.39;85.21
57074;BME280;69035;54.392;18.574;2023-04-07T03:53:23;101786.00;;;5.45;85.47
57074;BME280;69035;54.392;18.574;2023-04-07T03:55:53;101780.00;;;5.48;85.15
57074;BME280;69035;54.392;18.574;2023-04-07T03:58:38;101773.16;;;5.53;85.26
57074;BME280;69035;54.392;18.574;2023-04-07T04:01:13;101781.75;;;5.49;83.99
57074;BME280;69035;54.392;18.574;2023-04-07T04:03:44;101780.94;;;5.51;84.90
57074;BME280;69035;54.392;18.574;2023-04-07T04:06:21;101783.38;;;5.44;84.80
57074;BME280;69035;54.392;18.574;2023-04-07T04:08:54;101781.31;;;5.32;86.72
57074;BME280;69035;54.392;18.574;2023-04-07T04:11:25;101773.69;;;5.39;86.20
57074;BME280;69035;54.392;18.574;2023-04-07T04:13:59;101781.75;;;5.49;86.06
57074;BME280;69035;54.392;18.574;2023-04-07T04:16:29;101769.50;;;5.45;86.17
57074;BME280;69035;54.392;18.574;2023-04-07T04:19:02;101778.75;;;5.33;87.41
57074;BME280;69035;54.392;18.574;2023-04-07T04:21:31;101776.94;;;5.31;87.05
57074;BME280;69035;54.392;18.574;2023-04-07T04:24:01;101781.41;;;5.35;85.72
57074;BME280;69035;54.392;18.574;2023-04-07T04:26:31;101780.59;;;5.37;86.05
57074;BME280;69035;54.392;18.574;2023-04-07T04:29:05;101790.91;;;5.34;86.32
57074;BME280;69035;54.392;18.574;2023-04-07T04:31:36;101789.28;;;5.38;86.14
57074;BME280;69035;54.392;18.574;2023-04-07T04:34:07;101786.59;;;5.35;86.59
57074;BME280;69035;54.392;18.574;2023-04-07T04:36:42;101782.19;;;5.32;87.28
57074;BME280;69035;54.392;18.574;2023-04-07T04:39:12;101791.81;;;5.35;86.42
57074;BME280;69035;54.392;18.574;2023-04-07T04:41:41;101782.91;;;5.27;88.34
57074;BME280;69035;54.392;18.574;2023-04-07T04:44:10;101783.84;;;5.29;88.62
57074;BME280;69035;54.392;18.574;2023-04-07T04:46:41;101782.00;;;5.24;87.63
57074;BME280;69035;54.392;18.574;2023-04-07T04:49:10;101775.00;;;5.23;88.24
57074;BME280;69035;54.392;18.574;2023-04-07T04:51:38;101767.31;;;5.28;88.59
57074;BME280;69035;54.392;18.574;2023-04-07T04:54:15;101770.88;;;5.32;87.46
57074;BME280;69035;54.392;18.574;2023-04-07T04:56:45;101763.16;;;5.35;88.19
57074;BME280;69035;54.392;18.574;2023-04-07T04:59:14;101763.16;;;5.35;87.44
57074;BME280;69035;54.392;18.574;2023-04-07T05:01:55;101766.50;;;5.31;87.78
57074;BME280;69035;54.392;18.574;2023-04-07T05:04:24;101766.38;;;5.26;87.69
57074;BME280;69035;54.392;18.574;2023-04-07T05:07:01;101765.47;;;5.26;88.22
57074;BME280;69035;54.392;18.574;2023-04-07T05:09:32;101767.22;;;5.25;88.93
57074;BME280;69035;54.392;18.574;2023-04-07T05:12:02;101774.97;;;5.22;88.65
57074;BME280;69035;54.392;18.574;2023-04-07T05:14:37;101783.53;;;5.18;88.38
57074;BME280;69035;54.392;18.574;2023-04-07T05:17:07;101780.16;;;5.22;88.50
57074;BME280;69035;54.392;18.574;2023-04-07T05:19:37;101777.59;;;5.23;88.63
57074;BME280;69035;54.392;18.574;2023-04-07T05:22:25;101784.75;;;5.31;88.08
57074;BME280;69035;54.392;18.574;2023-04-07T05:24:55;101775.75;;;5.19;88.01
57074;BME280;69035;54.392;18.574;2023-04-07T05:27:25;101788.28;;;5.33;88.50
57074;BME280;69035;54.392;18.574;2023-04-07T05:29:59;101775.47;;;5.40;87.98
57074;BME280;69035;54.392;18.574;2023-04-07T05:32:32;101781.59;;;5.43;87.65
57074;BME280;69035;54.392;18.574;2023-04-07T05:35:07;101771.03;;;5.38;87.69
57074;BME280;69035;54.392;18.574;2023-04-07T05:37:40;101766.63;;;5.35;89.08
57074;BME280;69035;54.392;18.574;2023-04-07T05:40:11;101772.78;;;5.37;88.46
57074;BME280;69035;54.392;18.574;2023-04-07T05:42:41;101776.19;;;5.35;88.50
57074;BME280;69035;54.392;18.574;2023-04-07T05:45:10;101783.97;;;5.33;89.91
57074;BME280;69035;54.392;18.574;2023-04-07T05:47:43;101783.22;;;5.37;88.85
57074;BME280;69035;54.392;18.574;2023-04-07T05:50:14;101785.22;;;5.48;88.09
57074;BME280;69035;54.392;18.574;2023-04-07T05:52:45;101783.72;;;5.57;88.15
57074;BME280;69035;54.392;18.574;2023-04-07T05:55:24;101787.25;;;5.59;87.32
57074;BME280;69035;54.392;18.574;2023-04-07T05:57:54;101790.03;;;5.66;88.41
57074;BME280;69035;54.392;18.574;2023-04-07T06:00:27;101792.78;;;5.72;87.54
57074;BME280;69035;54.392;18.574;2023-04-07T06:03:03;101793.78;;;5.77;86.67
57074;BME280;69035;54.392;18.574;2023-04-07T06:05:44;101793.94;;;5.83;86.73
57074;BME280;69035;54.392;18.574;2023-04-07T06:08:14;101800.81;;;5.80;87.03
57074;BME280;69035;54.392;18.574;2023-04-07T06:10:43;101801.66;;;5.79;86.72
57074;BME280;69035;54.392;18.574;2023-04-07T06:13:12;101803.47;;;5.81;87.47
57074;BME280;69035;54.392;18.574;2023-04-07T06:15:41;101783.50;;;5.83;87.31
57074;BME280;69035;54.392;18.574;2023-04-07T06:18:10;101792.25;;;5.85;87.47
57074;BME280;69035;54.392;18.574;2023-04-07T06:20:39;101794.97;;;5.88;88.41
57074;BME280;69035;54.392;18.574;2023-04-07T06:23:08;101788.19;;;5.97;87.72
57074;BME280;69035;54.392;18.574;2023-04-07T06:25:36;101786.66;;;6.03;87.10
57074;BME280;69035;54.392;18.574;2023-04-07T06:28:07;101808.38;;;6.02;86.89
57074;BME280;69035;54.392;18.574;2023-04-07T06:30:36;101798.88;;;6.04;87.08
57074;BME280;69035;54.392;18.574;2023-04-07T06:33:08;101805.09;;;6.11;87.25
57074;BME280;69035;54.392;18.574;2023-04-07T06:35:38;101805.06;;;6.09;86.77
57074;BME280;69035;54.392;18.574;2023-04-07T06:38:07;101810.13;;;6.03;86.44
57074;BME280;69035;54.392;18.574;2023-04-07T06:40:37;101800.47;;;5.99;87.77
57074;BME280;69035;54.392;18.574;2023-04-07T06:43:07;101802.00;;;5.92;86.83
57074;BME280;69035;54.392;18.574;2023-04-07T06:45:40;101806.56;;;6.00;87.44
57074;BME280;69035;54.392;18.574;2023-04-07T06:48:09;101803.16;;;6.02;87.19
57074;BME280;69035;54.392;18.574;2023-04-07T06:50:38;101801.38;;;6.01;87.31
57074;BME280;69035;54.392;18.574;2023-04-07T06:53:07;101799.66;;;6.02;87.63
57074;BME280;69035;54.392;18.574;2023-04-07T06:55:35;101795.28;;;6.01;87.79
57074;BME280;69035;54.392;18.574;2023-04-07T06:58:04;101805.72;;;6.01;86.67
57074;BME280;69035;54.392;18.574;2023-04-07T07:00:35;101796.31;;;6.07;86.36
57074;BME280;69035;54.392;18.574;2023-04-07T07:03:04;101796.31;;;6.07;86.61
57074;BME280;69035;54.392;18.574;2023-04-07T07:05:33;101807.63;;;6.08;87.19
57074;BME280;69035;54.392;18.574;2023-04-07T07:08:02;101808.75;;;6.18;87.20
57074;BME280;69035;54.392;18.574;2023-04-07T07:10:31;101805.16;;;6.14;85.16
57074;BME280;69035;54.392;18.574;2023-04-07T07:13:00;101809.50;;;6.14;86.43
57074;BME280;69035;54.392;18.574;2023-04-07T07:15:29;101808.75;;;6.18;86.09
57074;BME280;69035;54.392;18.574;2023-04-07T07:18:00;101818.97;;;6.10;86.26
57074;BME280;69035;54.392;18.574;2023-04-07T07:20:29;101818.28;;;6.17;86.20
57074;BME280;69035;54.392;18.574;2023-04-07T07:22:58;101816.38;;;6.10;85.99
57074;BME280;69035;54.392;18.574;2023-04-07T07:25:27;101814.03;;;6.21;85.74
57074;BME280;69035;54.392;18.574;2023-04-07T07:27:56;101820.09;;;6.20;85.56
57074;BME280;69035;54.392;18.574;2023-04-07T07:30:25;101816.63;;;6.19;86.22
57074;BME280;69035;54.392;18.574;2023-04-07T07:32:55;101814.84;;;6.18;86.00
57074;BME280;69035;54.392;18.574;2023-04-07T07:35:25;101823.44;;;6.14;85.99
57074;BME280;69035;54.392;18.574;2023-04-07T07:37:54;101820.75;;;6.11;86.75
57074;BME280;69035;54.392;18.574;2023-04-07T07:40:23;101831.19;;;6.11;85.88
57074;BME280;69035;54.392;18.574;2023-04-07T07:42:52;101817.38;;;6.15;85.92
57074;BME280;69035;54.392;18.574;2023-04-07T07:45:20;101825.25;;;6.17;86.56
57074;BME280;69035;54.392;18.574;2023-04-07T07:47:49;101818.19;;;6.13;86.80
57074;BME280;69035;54.392;18.574;2023-04-07T07:50:18;101824.38;;;6.16;86.85
57074;BME280;69035;54.392;18.574;2023-04-07T07:52:49;101826.13;;;6.17;85.71
57074;BME280;69035;54.392;18.574;2023-04-07T07:55:17;101824.63;;;6.27;86.32
57074;BME280;69035;54.392;18.574;2023-04-07T07:57:46;101828.06;;;6.26;86.24
57074;BME280;69035;54.392;18.574;2023-04-07T08:00:15;101822.91;;;6.29;85.24
57074;BME280;69035;54.392;18.574;2023-04-07T08:02:45;101825.44;;;6.24;86.51
57074;BME280;69035;54.392;18.574;2023-04-07T08:05:13;101827.28;;;6.28;85.85
57074;BME280;69035;54.392;18.574;2023-04-07T08:07:42;101833.28;;;6.26;85.64
57074;BME280;69035;54.392;18.574;2023-04-07T08:10:14;101832.41;;;6.25;86.05
57074;BME280;69035;54.392;18.574;2023-04-07T08:12:46;101838.81;;;6.38;85.21
57074;BME280;69035;54.392;18.574;2023-04-07T08:15:14;101831.09;;;6.43;84.77
57074;BME280;69035;54.392;18.574;2023-04-07T08:17:44;101825.66;;;6.34;85.19
57074;BME280;69035;54.392;18.574;2023-04-07T08:20:13;101833.56;;;6.37;84.48
57074;BME280;69035;54.392;18.574;2023-04-07T08:22:42;101825.84;;;6.41;84.91
57074;BME280;69035;54.392;18.574;2023-04-07T08:25:11;101818.13;;;6.48;84.67
57074;BME280;69035;54.392;18.574;2023-04-07T08:27:42;101821.00;;;6.58;84.29
57074;BME280;69035;54.392;18.574;2023-04-07T08:30:11;101819.97;;;6.52;84.18
57074;BME280;69035;54.392;18.574;2023-04-07T08:32:41;101818.00;;;6.41;84.58
57074;BME280;69035;54.392;18.574;2023-04-07T08:35:10;101823.00;;;6.31;84.62
57074;BME280;69035;54.392;18.574;2023-04-07T08:37:39;101814.16;;;6.25;85.30
57074;BME280;69035;54.392;18.574;2023-04-07T08:40:10;101834.69;;;6.47;85.45
57074;BME280;69035;54.392;18.574;2023-04-07T08:42:40;101832.72;;;6.38;85.76
57074;BME280;69035;54.392;18.574;2023-04-07T08:45:11;101831.31;;;6.16;84.49
57074;BME280;69035;54.392;18.574;2023-04-07T08:47:41;101828.88;;;6.22;86.08
57074;BME280;69035;54.392;18.574;2023-04-07T08:50:11;101829.88;;;6.28;84.80
57074;BME280;69035;54.392;18.574;2023-04-07T08:52:43;101836.75;;;6.23;84.85
57074;BME280;69035;54.392;18.574;2023-04-07T08:55:12;101830.53;;;6.20;86.14
57074;BME280;69035;54.392;18.574;2023-04-07T08:57:42;101833.94;;;6.17;87.29
57074;BME280;69035;54.392;18.574;2023-04-07T09:00:13;101833.00;;;6.14;86.29
57074;BME280;69035;54.392;18.574;2023-04-07T09:02:43;101835.53;;;6.10;85.83
57074;BME280;69035;54.392;18.574;2023-04-07T09:05:12;101828.97;;;6.26;85.45
57074;BME280;69035;54.392;18.574;2023-04-07T09:07:41;101835.94;;;6.27;85.16
57074;BME280;69035;54.392;18.574;2023-04-07T09:10:10;101820.19;;;6.24;85.40
57074;BME280;69035;54.392;18.574;2023-04-07T09:12:39;101826.34;;;6.25;84.96
57074;BME280;69035;54.392;18.574;2023-04-07T09:15:09;101818.53;;;6.26;84.59
57074;BME280;69035;54.392;18.574;2023-04-07T09:17:39;101819.31;;;6.22;84.99
57074;BME280;69035;54.392;18.574;2023-04-07T09:20:08;101816.69;;;6.22;84.68
57074;BME280;69035;54.392;18.574;2023-04-07T09:22:38;101816.81;;;6.28;84.48
57074;BME280;69035;54.392;18.574;2023-04-07T09:25:10;101809.38;;;6.44;84.22
57074;BME280;69035;54.392;18.574;2023-04-07T09:27:39;101805.28;;;6.55;83.49
57074;BME280;69035;54.392;18.574;2023-04-07T09:30:12;101800.38;;;6.71;84.08
57074;BME280;69035;54.392;18.574;2023-04-07T09:32:43;101807.56;;;6.81;83.15
57074;BME280;69035;54.392;18.574;2023-04-07T09:35:12;101810.38;;;6.90;82.99
57074;BME280;69035;54.392;18.574;2023-04-07T09:37:41;101807.25;;;7.08;82.14
57074;BME280;69035;54.392;18.574;2023-04-07T09:40:10;101803.22;;;7.24;80.36
57074;BME280;69035;54.392;18.574;2023-04-07T09:42:45;101805.06;;;7.28;79.79
57074;BME280;69035;54.392;18.574;2023-04-07T09:45:23;101801.75;;;7.39;79.90
57074;BME280;69035;54.392;18.574;2023-04-07T09:48:05;101801.84;;;7.43;79.90
57074;BME280;69035;54.392;18.574;2023-04-07T09:50:37;101804.47;;;7.45;79.40
57074;BME280;69035;54.392;18.574;2023-04-07T09:53:07;101808.56;;;7.30;79.28
57074;BME280;69035;54.392;18.574;2023-04-07T09:55:38;101810.44;;;7.38;79.00
57074;BME280;69035;54.392;18.574;2023-04-07T09:58:08;101815.09;;;7.54;78.93
57074;BME280;69035;54.392;18.574;2023-04-07T10:00:40;101805.47;;;7.50;79.24
57074;BME280;69035;54.392;18.574;2023-04-07T10:03:11;101816.69;;;7.44;79.25
57074;BME280;69035;54.392;18.574;2023-04-07T10:05:41;101816.53;;;7.38;79.88
57074;BME280;69035;54.392;18.574;2023-04-07T10:08:11;101813.31;;;7.50;79.56
57074;BME280;69035;54.392;18.574;2023-04-07T10:10:40;101808.00;;;7.47;79.20
57074;BME280;69035;54.392;18.574;2023-04-07T10:13:10;101812.66;;;7.62;78.84
57074;BME280;69035;54.392;18.574;2023-04-07T10:15:39;101809.41;;;7.77;78.83
57074;BME280;69035;54.392;18.574;2023-04-07T10:18:08;101817.41;;;7.86;78.20
57074;BME280;69035;54.392;18.574;2023-04-07T10:20:39;101813.34;;;8.02;77.48
57074;BME280;69035;54.392;18.574;2023-04-07T10:23:12;101813.59;;;8.17;76.74
57074;BME280;69035;54.392;18.574;2023-04-07T10:25:44;101819.88;;;8.27;76.37
57074;BME280;69035;54.392;18.574;2023-04-07T10:28:16;101812.22;;;8.43;75.55
57074;BME280;69035;54.392;18.574;2023-04-07T10:30:47;101814.75;;;8.35;74.88
57074;BME280;69035;54.392;18.574;2023-04-07T10:33:16;101809.31;;;8.24;75.33
57074;BME280;69035;54.392;18.574;2023-04-07T10:36:06;101811.63;;;8.02;74.79
57074;BME280;69035;54.392;18.574;2023-04-07T10:38:35;101810.09;;;8.17;74.81
57074;BME280;69035;54.392;18.574;2023-04-07T10:41:30;101812.84;;;8.26;75.38
57074;BME280;69035;54.392;18.574;2023-04-07T10:43:59;101806.81;;;8.30;74.65
57074;BME280;69035;54.392;18.574;2023-04-07T10:47:02;101804.31;;;8.38;74.87
57074;BME280;69035;54.392;18.574;2023-04-07T10:49:31;101806.94;;;8.40;74.65
57074;BME280;69035;54.392;18.574;2023-04-07T10:52:24;101796.47;;;8.41;73.76
57074;BME280;69035;54.392;18.574;2023-04-07T10:55:27;101798.78;;;8.19;74.68
57074;BME280;69035;54.392;18.574;2023-04-07T10:58:18;101803.06;;;8.13;73.46
57074;BME280;69035;54.392;18.574;2023-04-07T11:01:17;101804.75;;;8.11;74.86
57074;BME280;69035;54.392;18.574;2023-04-07T11:03:55;101808.31;;;8.14;74.91
57074;BME280;69035;54.392;18.574;2023-04-07T11:06:25;101807.50;;;8.18;74.41
57074;BME280;69035;54.392;18.574;2023-04-07T11:08:55;101798.78;;;8.19;75.17
57074;BME280;69035;54.392;18.574;2023-04-07T11:11:36;101790.06;;;8.20;73.95
57074;BME280;69035;54.392;18.574;2023-04-07T11:14:06;101789.38;;;8.34;74.40
57074;BME280;69035;54.392;18.574;2023-04-07T11:16:39;101797.63;;;8.57;73.41
57074;BME280;69035;54.392;18.574;2023-04-07T11:19:09;101793.34;;;8.62;72.95
57074;BME280;69035;54.392;18.574;2023-04-07T11:21:38;101791.97;;;8.92;72.88
57074;BME280;69035;54.392;18.574;2023-04-07T11:24:08;101793.09;;;9.13;72.29
57074;BME280;69035;54.392;18.574;2023-04-07T11:26:39;101784.34;;;9.11;70.56
57074;BME280;69035;54.392;18.574;2023-04-07T11:29:08;101782.75;;;9.25;71.13
57074;BME280;69035;54.392;18.574;2023-04-07T11:31:39;101782.06;;;9.45;69.91
57074;BME280;69035;54.392;18.574;2023-04-07T11:34:08;101790.94;;;9.57;69.86
57074;BME280;69035;54.392;18.574;2023-04-07T11:36:40;101780.59;;;9.70;69.36
57074;BME280;69035;54.392;18.574;2023-04-07T11:39:19;101753.31;;;9.55;69.04
57074;BME280;69035;54.392;18.574;2023-04-07T11:41:49;101770.22;;;9.91;68.69
57074;BME280;69035;54.392;18.574;2023-04-07T11:44:18;101773.88;;;10.10;68.11
57074;BME280;69035;54.392;18.574;2023-04-07T11:46:54;101772.19;;;10.16;67.92
57074;BME280;69035;54.392;18.574;2023-04-07T11:49:23;101766.94;;;10.17;67.63
57074;BME280;69035;54.392;18.574;2023-04-07T11:51:57;101766.91;;;10.14;66.47
57074;BME280;69035;54.392;18.574;2023-04-07T11:54:38;101765.13;;;10.11;67.12
57074;BME280;69035;54.392;18.574;2023-04-07T11:57:07;101770.53;;;10.33;66.99
57074;BME280;69035;54.392;18.574;2023-04-07T11:59:39;101764.50;;;10.45;66.85
57074;BME280;69035;54.392;18.574;2023-04-07T12:02:09;101765.34;;;10.39;65.95
57074;BME280;69035;54.392;18.574;2023-04-07T12:04:38;101768.81;;;10.34;66.44
57074;BME280;69035;54.392;18.574;2023-04-07T12:07:23;101765.34;;;10.38;66.21
57074;BME280;69035;54.392;18.574;2023-04-07T12:09:55;101769.75;;;10.42;65.26
57074;BME280;69035;54.392;18.574;2023-04-07T12:12:25;101774.16;;;10.41;66.18
57074;BME280;69035;54.392;18.574;2023-04-07T12:14:55;101756.63;;;10.46;65.55
57074;BME280;69035;54.392;18.574;2023-04-07T12:17:25;101768.94;;;10.54;64.66
57074;BME280;69035;54.392;18.574;2023-04-07T12:19:54;101772.34;;;10.34;63.73
57074;BME280;69035;54.392;18.574;2023-04-07T12:22:23;101766.16;;;10.30;65.13
57074;BME280;69035;54.392;18.574;2023-04-07T12:24:53;101770.53;;;10.32;65.90
57074;BME280;69035;54.392;18.574;2023-04-07T12:27:23;101766.19;;;10.34;64.74
57074;BME280;69035;54.392;18.574;2023-04-07T12:30:08;101762.72;;;10.39;65.30
57074;BME280;69035;54.392;18.574;2023-04-07T12:32:38;101764.56;;;10.53;64.94
57074;BME280;69035;54.392;18.574;2023-04-07T12:35:07;101768.94;;;10.54;64.98
57074;BME280;69035;54.392;18.574;2023-04-07T12:37:36;101774.28;;;10.66;64.71
57074;BME280;69035;54.392;18.574;2023-04-07T12:40:06;101777.81;;;10.76;64.31
57074;BME280;69035;54.392;18.574;2023-04-07T12:42:38;101781.28;;;10.70;64.46
57074;BME280;69035;54.392;18.574;2023-04-07T12:45:07;101781.28;;;10.70;64.98
57074;BME280;69035;54.392;18.574;2023-04-07T12:47:36;101783.88;;;10.56;64.17
57074;BME280;69035;54.392;18.574;2023-04-07T12:50:05;101785.66;;;10.60;64.09
57074;BME280;69035;54.392;18.574;2023-04-07T12:52:34;101789.97;;;10.55;63.90
57074;BME280;69035;54.392;18.574;2023-04-07T12:55:04;101795.94;;;10.29;64.51
57074;BME280;69035;54.392;18.574;2023-04-07T12:57:33;101794.03;;;10.08;64.53
57074;BME280;69035;54.392;18.574;2023-04-07T13:00:03;101787.94;;;10.12;64.71
57074;BME280;69035;54.392;18.574;2023-04-07T13:02:32;101787.09;;;10.20;64.35
57074;BME280;69035;54.392;18.574;2023-04-07T13:05:03;101789.91;;;10.41;64.21
57074;BME280;69035;54.392;18.574;2023-04-07T13:07:32;101792.59;;;10.54;63.82
57074;BME280;69035;54.392;18.574;2023-04-07T13:10:02;101796.22;;;10.77;63.01
57074;BME280;69035;54.392;18.574;2023-04-07T13:12:32;101796.28;;;10.85;62.90